Hauptseite
METAR-TAF:

METAR-TAF

Flughäfen :

Flughafen Ouagadougou

Ouagadougou, Burkina Faso

Breite: 12-21N, Länge: 001-31W, Höhe: 316 m

Beobachtung

Neuester Wetterbericht von vor 1 Stunde und 12 Minuten, um 23:00 UTC
Wind 7 kt aus Südwest
Temperatur 34°C
Luftfeuchtigkeit 32%
Luftdruck 1010 hPa
Sichtweite 10 km oder mehr
keine Wolken unter 1500 m und keine Kumulonimbus oder Gewitterwolken

METAR: DFFD 142300Z 22007KT CAVOK 34/15 Q1010 NOSIG

Zeit: 00:12 (00:12 UTC)

Prognose

Neuester Wetterbericht von vor 1 Stunde und 12 Minuten, um 23:00 UTC
Gültige Prognose vom 15 um 00 UTC bis 16 um 06 UTC
Wind 8 kt aus Süd/Südwest
Sichtweite: 8000 m
Zeitweise
vom 15 um 06 UTC bis 15 um 10 UTC
Sichtweite: 4000 m
trockener Dunst

TAF: DFFD 142300Z 1500/1606 20008KT 8000 NSC TEMPO 1506/1510 4000 HZ

Wetterbeobachtungen und Prognosen von mehr als 4000 Flughäfen (METAR und TAF Bericht).

Die verfügbaren Stationen werden durch gelbe und rote Markierungen auf der Karte dargestellt.

Führen Sie die Maus auf sie, um den Namen der Station zu sehen.

Darauf klicken, um die Beobachtung von Wetterbeobachtungen und Prognosen zu sehen.

Um die Karte zu ändern : klicken Sie auf den grünen Tasten mit einem schwarzen Kreuz Zum Vergrößern, auf den grünen Button mit einem Gedankenstrich zu verkleinern, oder auf die grünen Pfeile für benachbarte Karten.


METAR-TAF: